sensor_id;sensor_type;location;lat;lon;timestamp;P1;durP1;ratioP1;P2;durP2;ratioP2
41532;SDS011;27262;-35.248;149.138;2023-02-13T00:00:38;3.60;;;1.30;;
41532;SDS011;27262;-35.248;149.138;2023-02-13T00:03:09;3.03;;;1.25;;
41532;SDS011;27262;-35.248;149.138;2023-02-13T00:05:39;2.72;;;1.00;;
41532;SDS011;27262;-35.248;149.138;2023-02-13T00:08:09;6.75;;;1.20;;
41532;SDS011;27262;-35.248;149.138;2023-02-13T00:10:40;3.70;;;1.00;;
41532;SDS011;27262;-35.248;149.138;2023-02-13T00:13:10;4.70;;;0.98;;
41532;SDS011;27262;-35.248;149.138;2023-02-13T00:15:40;2.88;;;1.00;;
41532;SDS011;27262;-35.248;149.138;2023-02-13T00:18:11;6.22;;;1.33;;
41532;SDS011;27262;-35.248;149.138;2023-02-13T00:20:41;2.13;;;0.95;;
41532;SDS011;27262;-35.248;149.138;2023-02-13T00:23:11;2.17;;;0.80;;
41532;SDS011;27262;-35.248;149.138;2023-02-13T00:25:41;2.45;;;1.10;;
41532;SDS011;27262;-35.248;149.138;2023-02-13T00:28:11;4.53;;;1.20;;
41532;SDS011;27262;-35.248;149.138;2023-02-13T00:30:42;3.80;;;1.10;;
41532;SDS011;27262;-35.248;149.138;2023-02-13T00:33:12;4.07;;;1.20;;
41532;SDS011;27262;-35.248;149.138;2023-02-13T00:35:42;7.43;;;1.30;;
41532;SDS011;27262;-35.248;149.138;2023-02-13T00:38:13;5.88;;;1.40;;
41532;SDS011;27262;-35.248;149.138;2023-02-13T00:40:51;3.70;;;1.20;;
41532;SDS011;27262;-35.248;149.138;2023-02-13T00:43:22;3.72;;;1.48;;
41532;SDS011;27262;-35.248;149.138;2023-02-13T00:45:52;8.32;;;1.92;;
41532;SDS011;27262;-35.248;149.138;2023-02-13T00:48:23;8.07;;;1.98;;
41532;SDS011;27262;-35.248;149.138;2023-02-13T00:50:56;8.75;;;1.90;;
41532;SDS011;27262;-35.248;149.138;2023-02-13T00:53:27;6.25;;;1.45;;
41532;SDS011;27262;-35.248;149.138;2023-02-13T00:55:58;11.35;;;1.80;;
41532;SDS011;27262;-35.248;149.138;2023-02-13T00:58:28;8.65;;;1.73;;
41532;SDS011;27262;-35.248;149.138;2023-02-13T01:00:59;7.45;;;1.70;;
41532;SDS011;27262;-35.248;149.138;2023-02-13T01:03:29;7.90;;;1.98;;
41532;SDS011;27262;-35.248;149.138;2023-02-13T01:05:59;5.57;;;1.70;;
41532;SDS011;27262;-35.248;149.138;2023-02-13T01:08:30;4.35;;;1.58;;
41532;SDS011;27262;-35.248;149.138;2023-02-13T01:11:00;7.40;;;1.73;;
41532;SDS011;27262;-35.248;149.138;2023-02-13T01:13:30;4.97;;;1.20;;
41532;SDS011;27262;-35.248;149.138;2023-02-13T01:16:01;3.30;;;1.30;;
41532;SDS011;27262;-35.248;149.138;2023-02-13T01:18:31;3.83;;;1.52;;
41532;SDS011;27262;-35.248;149.138;2023-02-13T01:21:04;3.65;;;1.20;;
41532;SDS011;27262;-35.248;149.138;2023-02-13T01:23:37;3.97;;;1.40;;
41532;SDS011;27262;-35.248;149.138;2023-02-13T01:26:08;4.78;;;1.27;;
41532;SDS011;27262;-35.248;149.138;2023-02-13T01:28:43;3.58;;;1.38;;
41532;SDS011;27262;-35.248;149.138;2023-02-13T01:31:13;5.20;;;1.50;;
41532;SDS011;27262;-35.248;149.138;2023-02-13T01:33:44;3.50;;;1.50;;
41532;SDS011;27262;-35.248;149.138;2023-02-13T01:36:14;11.50;;;1.50;;
41532;SDS011;27262;-35.248;149.138;2023-02-13T01:38:44;4.13;;;1.10;;
41532;SDS011;27262;-35.248;149.138;2023-02-13T01:41:14;3.22;;;1.23;;
41532;SDS011;27262;-35.248;149.138;2023-02-13T01:43:46;4.38;;;1.60;;
41532;SDS011;27262;-35.248;149.138;2023-02-13T01:46:40;3.67;;;1.17;;
41532;SDS011;27262;-35.248;149.138;2023-02-13T01:49:17;4.00;;;1.48;;
41532;SDS011;27262;-35.248;149.138;2023-02-13T01:51:49;3.60;;;1.25;;
41532;SDS011;27262;-35.248;149.138;2023-02-13T01:54:24;3.78;;;1.38;;
41532;SDS011;27262;-35.248;149.138;2023-02-13T01:57:03;4.65;;;1.65;;
41532;SDS011;27262;-35.248;149.138;2023-02-13T01:59:48;4.15;;;1.30;;
41532;SDS011;27262;-35.248;149.138;2023-02-13T02:02:19;5.10;;;1.63;;
41532;SDS011;27262;-35.248;149.138;2023-02-13T02:04:50;4.65;;;1.63;;
41532;SDS011;27262;-35.248;149.138;2023-02-13T02:07:22;4.00;;;1.80;;
41532;SDS011;27262;-35.248;149.138;2023-02-13T02:09:57;7.97;;;1.50;;
41532;SDS011;27262;-35.248;149.138;2023-02-13T02:15:32;3.95;;;1.50;;
41532;SDS011;27262;-35.248;149.138;2023-02-13T02:18:05;2.90;;;1.15;;
41532;SDS011;27262;-35.248;149.138;2023-02-13T02:26:21;6.03;;;1.45;;
41532;SDS011;27262;-35.248;149.138;2023-02-13T02:37:58;4.93;;;1.52;;
41532;SDS011;27262;-35.248;149.138;2023-02-13T02:43:40;5.63;;;1.60;;
41532;SDS011;27262;-35.248;149.138;2023-02-13T02:46:25;4.93;;;1.95;;
41532;SDS011;27262;-35.248;149.138;2023-02-13T02:49:10;3.08;;;1.85;;
41532;SDS011;27262;-35.248;149.138;2023-02-13T02:54:39;5.13;;;2.20;;
41532;SDS011;27262;-35.248;149.138;2023-02-13T02:57:37;3.33;;;1.83;;
41532;SDS011;27262;-35.248;149.138;2023-02-13T03:00:41;3.58;;;1.92;;
41532;SDS011;27262;-35.248;149.138;2023-02-13T03:03:30;5.65;;;1.63;;
41532;SDS011;27262;-35.248;149.138;2023-02-13T03:06:37;4.80;;;1.88;;
41532;SDS011;27262;-35.248;149.138;2023-02-13T03:09:22;4.60;;;1.63;;
41532;SDS011;27262;-35.248;149.138;2023-02-13T03:12:46;2.80;;;1.63;;
41532;SDS011;27262;-35.248;149.138;2023-02-13T03:15:53;5.70;;;1.70;;
41532;SDS011;27262;-35.248;149.138;2023-02-13T03:18:49;4.50;;;1.52;;
41532;SDS011;27262;-35.248;149.138;2023-02-13T03:30:59;3.38;;;1.52;;
41532;SDS011;27262;-35.248;149.138;2023-02-13T03:33:43;3.83;;;1.63;;
41532;SDS011;27262;-35.248;149.138;2023-02-13T03:39:34;4.00;;;1.30;;
41532;SDS011;27262;-35.248;149.138;2023-02-13T03:42:40;3.97;;;1.65;;
41532;SDS011;27262;-35.248;149.138;2023-02-13T03:45:38;3.30;;;1.63;;
41532;SDS011;27262;-35.248;149.138;2023-02-13T03:48:27;4.97;;;1.85;;
41532;SDS011;27262;-35.248;149.138;2023-02-13T03:51:19;4.85;;;1.80;;
41532;SDS011;27262;-35.248;149.138;2023-02-13T03:54:18;4.38;;;2.15;;
41532;SDS011;27262;-35.248;149.138;2023-02-13T03:57:10;6.07;;;2.30;;
41532;SDS011;27262;-35.248;149.138;2023-02-13T04:00:05;7.93;;;1.90;;
41532;SDS011;27262;-35.248;149.138;2023-02-13T04:02:43;3.65;;;1.80;;
41532;SDS011;27262;-35.248;149.138;2023-02-13T04:05:29;4.18;;;1.77;;
41532;SDS011;27262;-35.248;149.138;2023-02-13T04:08:07;4.88;;;2.28;;
41532;SDS011;27262;-35.248;149.138;2023-02-13T04:10:41;2.90;;;1.45;;
41532;SDS011;27262;-35.248;149.138;2023-02-13T04:13:26;3.03;;;1.95;;
41532;SDS011;27262;-35.248;149.138;2023-02-13T04:16:09;5.53;;;1.83;;
41532;SDS011;27262;-35.248;149.138;2023-02-13T04:18:44;3.08;;;1.83;;
41532;SDS011;27262;-35.248;149.138;2023-02-13T04:21:15;4.95;;;2.22;;
41532;SDS011;27262;-35.248;149.138;2023-02-13T04:23:46;4.90;;;2.40;;
41532;SDS011;27262;-35.248;149.138;2023-02-13T04:26:17;3.15;;;1.95;;
41532;SDS011;27262;-35.248;149.138;2023-02-13T04:28:50;4.45;;;2.08;;
41532;SDS011;27262;-35.248;149.138;2023-02-13T04:31:21;5.18;;;2.30;;
41532;SDS011;27262;-35.248;149.138;2023-02-13T04:33:51;4.32;;;2.17;;
41532;SDS011;27262;-35.248;149.138;2023-02-13T04:36:21;5.30;;;2.22;;
41532;SDS011;27262;-35.248;149.138;2023-02-13T04:38:52;4.13;;;2.33;;
41532;SDS011;27262;-35.248;149.138;2023-02-13T04:41:22;5.50;;;2.20;;
41532;SDS011;27262;-35.248;149.138;2023-02-13T04:43:52;2.90;;;1.85;;
41532;SDS011;27262;-35.248;149.138;2023-02-13T04:46:23;4.80;;;2.25;;
41532;SDS011;27262;-35.248;149.138;2023-02-13T04:48:53;7.00;;;2.65;;
41532;SDS011;27262;-35.248;149.138;2023-02-13T04:51:23;5.80;;;3.03;;
41532;SDS011;27262;-35.248;149.138;2023-02-13T04:53:54;5.95;;;2.75;;
41532;SDS011;27262;-35.248;149.138;2023-02-13T04:56:24;4.85;;;2.70;;
41532;SDS011;27262;-35.248;149.138;2023-02-13T04:58:54;5.38;;;2.65;;
41532;SDS011;27262;-35.248;149.138;2023-02-13T05:01:24;6.90;;;2.70;;
41532;SDS011;27262;-35.248;149.138;2023-02-13T05:03:55;3.97;;;2.75;;
41532;SDS011;27262;-35.248;149.138;2023-02-13T05:06:25;6.53;;;3.42;;
41532;SDS011;27262;-35.248;149.138;2023-02-13T05:08:55;8.18;;;3.30;;
41532;SDS011;27262;-35.248;149.138;2023-02-13T05:11:25;5.00;;;2.85;;
41532;SDS011;27262;-35.248;149.138;2023-02-13T05:13:55;5.75;;;2.70;;
41532;SDS011;27262;-35.248;149.138;2023-02-13T05:16:26;6.63;;;2.90;;
41532;SDS011;27262;-35.248;149.138;2023-02-13T05:18:56;6.82;;;2.90;;
41532;SDS011;27262;-35.248;149.138;2023-02-13T05:21:26;7.03;;;3.15;;
41532;SDS011;27262;-35.248;149.138;2023-02-13T05:24:32;10.70;;;2.90;;
41532;SDS011;27262;-35.248;149.138;2023-02-13T05:27:02;4.13;;;2.38;;
41532;SDS011;27262;-35.248;149.138;2023-02-13T05:29:32;7.60;;;3.30;;
41532;SDS011;27262;-35.248;149.138;2023-02-13T05:32:02;7.45;;;2.90;;
41532;SDS011;27262;-35.248;149.138;2023-02-13T05:34:33;8.23;;;3.13;;
41532;SDS011;27262;-35.248;149.138;2023-02-13T05:37:03;11.45;;;3.60;;
41532;SDS011;27262;-35.248;149.138;2023-02-13T05:39:34;9.10;;;2.90;;
41532;SDS011;27262;-35.248;149.138;2023-02-13T05:42:05;6.13;;;3.00;;
41532;SDS011;27262;-35.248;149.138;2023-02-13T05:44:36;9.32;;;2.90;;
41532;SDS011;27262;-35.248;149.138;2023-02-13T05:47:07;9.18;;;3.28;;
41532;SDS011;27262;-35.248;149.138;2023-02-13T05:49:37;7.80;;;3.00;;
41532;SDS011;27262;-35.248;149.138;2023-02-13T05:52:07;7.82;;;2.88;;
41532;SDS011;27262;-35.248;149.138;2023-02-13T05:54:37;8.70;;;2.95;;
41532;SDS011;27262;-35.248;149.138;2023-02-13T05:57:08;9.18;;;3.03;;
41532;SDS011;27262;-35.248;149.138;2023-02-13T05:59:38;6.65;;;2.47;;
41532;SDS011;27262;-35.248;149.138;2023-02-13T06:02:08;7.60;;;2.88;;
41532;SDS011;27262;-35.248;149.138;2023-02-13T06:04:39;7.15;;;3.05;;
41532;SDS011;27262;-35.248;149.138;2023-02-13T06:07:09;8.90;;;3.25;;
41532;SDS011;27262;-35.248;149.138;2023-02-13T06:09:39;9.50;;;3.15;;
41532;SDS011;27262;-35.248;149.138;2023-02-13T06:12:09;7.00;;;2.47;;
41532;SDS011;27262;-35.248;149.138;2023-02-13T06:14:39;12.13;;;3.35;;
41532;SDS011;27262;-35.248;149.138;2023-02-13T06:17:10;9.70;;;3.17;;
41532;SDS011;27262;-35.248;149.138;2023-02-13T06:19:40;10.23;;;2.83;;
41532;SDS011;27262;-35.248;149.138;2023-02-13T06:22:10;8.60;;;2.97;;
41532;SDS011;27262;-35.248;149.138;2023-02-13T06:24:40;9.13;;;3.03;;
41532;SDS011;27262;-35.248;149.138;2023-02-13T06:27:11;9.93;;;2.88;;
41532;SDS011;27262;-35.248;149.138;2023-02-13T06:29:41;12.02;;;3.10;;
41532;SDS011;27262;-35.248;149.138;2023-02-13T06:32:11;8.77;;;2.58;;
41532;SDS011;27262;-35.248;149.138;2023-02-13T06:34:41;8.85;;;2.90;;
41532;SDS011;27262;-35.248;149.138;2023-02-13T06:37:12;11.82;;;3.35;;
41532;SDS011;27262;-35.248;149.138;2023-02-13T06:39:42;7.30;;;2.95;;
41532;SDS011;27262;-35.248;149.138;2023-02-13T06:42:12;13.25;;;3.80;;
41532;SDS011;27262;-35.248;149.138;2023-02-13T06:44:43;14.75;;;3.78;;
41532;SDS011;27262;-35.248;149.138;2023-02-13T06:47:13;7.82;;;2.60;;
41532;SDS011;27262;-35.248;149.138;2023-02-13T06:49:43;9.80;;;3.20;;
41532;SDS011;27262;-35.248;149.138;2023-02-13T06:52:13;13.27;;;3.63;;
41532;SDS011;27262;-35.248;149.138;2023-02-13T06:54:44;9.88;;;2.80;;
41532;SDS011;27262;-35.248;149.138;2023-02-13T06:57:14;10.07;;;3.25;;
41532;SDS011;27262;-35.248;149.138;2023-02-13T06:59:45;7.07;;;2.58;;
41532;SDS011;27262;-35.248;149.138;2023-02-13T07:02:15;8.68;;;2.90;;
41532;SDS011;27262;-35.248;149.138;2023-02-13T07:04:45;14.18;;;3.42;;
41532;SDS011;27262;-35.248;149.138;2023-02-13T07:07:15;13.38;;;4.20;;
41532;SDS011;27262;-35.248;149.138;2023-02-13T07:09:46;8.75;;;3.10;;
41532;SDS011;27262;-35.248;149.138;2023-02-13T07:12:16;11.05;;;3.45;;
41532;SDS011;27262;-35.248;149.138;2023-02-13T07:14:46;13.93;;;4.53;;
41532;SDS011;27262;-35.248;149.138;2023-02-13T07:17:16;13.40;;;4.05;;
41532;SDS011;27262;-35.248;149.138;2023-02-13T07:19:47;14.15;;;4.32;;
41532;SDS011;27262;-35.248;149.138;2023-02-13T07:22:17;11.93;;;3.90;;
41532;SDS011;27262;-35.248;149.138;2023-02-13T07:24:47;15.93;;;4.30;;
41532;SDS011;27262;-35.248;149.138;2023-02-13T07:27:18;18.48;;;5.00;;
41532;SDS011;27262;-35.248;149.138;2023-02-13T07:29:48;9.48;;;4.38;;
41532;SDS011;27262;-35.248;149.138;2023-02-13T07:32:18;13.32;;;3.78;;
41532;SDS011;27262;-35.248;149.138;2023-02-13T07:34:48;12.05;;;4.07;;
41532;SDS011;27262;-35.248;149.138;2023-02-13T07:37:28;12.88;;;3.75;;
41532;SDS011;27262;-35.248;149.138;2023-02-13T07:40:00;12.30;;;4.13;;
41532;SDS011;27262;-35.248;149.138;2023-02-13T07:42:32;11.70;;;3.92;;
41532;SDS011;27262;-35.248;149.138;2023-02-13T07:45:03;11.45;;;3.47;;
41532;SDS011;27262;-35.248;149.138;2023-02-13T07:47:35;9.90;;;3.53;;
41532;SDS011;27262;-35.248;149.138;2023-02-13T07:50:07;12.77;;;3.40;;
41532;SDS011;27262;-35.248;149.138;2023-02-13T07:52:38;11.02;;;3.60;;
41532;SDS011;27262;-35.248;149.138;2023-02-13T07:55:09;11.18;;;3.50;;
41532;SDS011;27262;-35.248;149.138;2023-02-13T07:57:39;13.23;;;3.90;;
41532;SDS011;27262;-35.248;149.138;2023-02-13T08:00:10;11.43;;;3.15;;
41532;SDS011;27262;-35.248;149.138;2023-02-13T08:02:42;15.38;;;3.58;;
41532;SDS011;27262;-35.248;149.138;2023-02-13T08:05:13;11.05;;;3.28;;
41532;SDS011;27262;-35.248;149.138;2023-02-13T08:07:44;8.20;;;2.78;;
41532;SDS011;27262;-35.248;149.138;2023-02-13T08:10:15;10.20;;;3.20;;
41532;SDS011;27262;-35.248;149.138;2023-02-13T08:13:04;12.57;;;3.83;;
41532;SDS011;27262;-35.248;149.138;2023-02-13T08:15:36;12.75;;;3.60;;
41532;SDS011;27262;-35.248;149.138;2023-02-13T08:18:06;16.08;;;3.60;;
41532;SDS011;27262;-35.248;149.138;2023-02-13T08:20:37;15.98;;;4.32;;
41532;SDS011;27262;-35.248;149.138;2023-02-13T08:23:08;14.65;;;3.70;;
41532;SDS011;27262;-35.248;149.138;2023-02-13T08:25:39;15.40;;;3.95;;
41532;SDS011;27262;-35.248;149.138;2023-02-13T08:28:10;19.83;;;4.00;;
41532;SDS011;27262;-35.248;149.138;2023-02-13T08:30:40;14.43;;;3.78;;
41532;SDS011;27262;-35.248;149.138;2023-02-13T08:33:11;13.77;;;3.70;;
41532;SDS011;27262;-35.248;149.138;2023-02-13T08:35:41;9.07;;;3.15;;
41532;SDS011;27262;-35.248;149.138;2023-02-13T08:38:11;12.25;;;3.42;;
41532;SDS011;27262;-35.248;149.138;2023-02-13T08:40:42;11.50;;;3.58;;
41532;SDS011;27262;-35.248;149.138;2023-02-13T08:43:13;8.30;;;2.80;;
41532;SDS011;27262;-35.248;149.138;2023-02-13T08:45:43;10.43;;;3.15;;
41532;SDS011;27262;-35.248;149.138;2023-02-13T08:48:14;9.10;;;2.80;;
41532;SDS011;27262;-35.248;149.138;2023-02-13T08:50:45;7.45;;;2.95;;
41532;SDS011;27262;-35.248;149.138;2023-02-13T08:53:15;8.55;;;3.08;;
41532;SDS011;27262;-35.248;149.138;2023-02-13T08:55:56;9.68;;;3.30;;
41532;SDS011;27262;-35.248;149.138;2023-02-13T08:58:26;7.60;;;3.03;;
41532;SDS011;27262;-35.248;149.138;2023-02-13T09:00:57;10.20;;;3.25;;
41532;SDS011;27262;-35.248;149.138;2023-02-13T09:03:27;10.65;;;3.38;;
41532;SDS011;27262;-35.248;149.138;2023-02-13T09:05:58;9.02;;;3.42;;
41532;SDS011;27262;-35.248;149.138;2023-02-13T09:08:30;9.98;;;3.20;;
41532;SDS011;27262;-35.248;149.138;2023-02-13T09:11:02;11.63;;;3.53;;
41532;SDS011;27262;-35.248;149.138;2023-02-13T09:13:35;7.72;;;3.13;;
41532;SDS011;27262;-35.248;149.138;2023-02-13T09:16:06;9.45;;;3.35;;
41532;SDS011;27262;-35.248;149.138;2023-02-13T09:18:38;6.45;;;2.90;;
41532;SDS011;27262;-35.248;149.138;2023-02-13T09:21:10;9.93;;;2.92;;
41532;SDS011;27262;-35.248;149.138;2023-02-13T09:23:42;7.18;;;2.33;;
41532;SDS011;27262;-35.248;149.138;2023-02-13T09:26:14;9.38;;;2.63;;
41532;SDS011;27262;-35.248;149.138;2023-02-13T09:28:47;10.27;;;3.00;;
41532;SDS011;27262;-35.248;149.138;2023-02-13T09:31:18;9.15;;;2.60;;
41532;SDS011;27262;-35.248;149.138;2023-02-13T09:33:54;4.70;;;2.28;;
41532;SDS011;27262;-35.248;149.138;2023-02-13T09:36:25;9.38;;;2.70;;
41532;SDS011;27262;-35.248;149.138;2023-02-13T09:38:56;10.40;;;2.80;;
41532;SDS011;27262;-35.248;149.138;2023-02-13T09:44:05;8.10;;;2.63;;
41532;SDS011;27262;-35.248;149.138;2023-02-13T09:47:19;9.52;;;2.67;;
41532;SDS011;27262;-35.248;149.138;2023-02-13T09:49:58;6.47;;;2.88;;
41532;SDS011;27262;-35.248;149.138;2023-02-13T09:52:34;10.65;;;2.67;;
41532;SDS011;27262;-35.248;149.138;2023-02-13T09:55:13;8.90;;;2.67;;
41532;SDS011;27262;-35.248;149.138;2023-02-13T09:57:57;6.53;;;2.50;;
41532;SDS011;27262;-35.248;149.138;2023-02-13T10:00:40;9.98;;;2.55;;
41532;SDS011;27262;-35.248;149.138;2023-02-13T10:09:01;8.20;;;2.28;;
41532;SDS011;27262;-35.248;149.138;2023-02-13T10:12:07;8.07;;;2.58;;
41532;SDS011;27262;-35.248;149.138;2023-02-13T10:17:40;7.75;;;2.40;;
41532;SDS011;27262;-35.248;149.138;2023-02-13T10:20:19;7.72;;;2.30;;
41532;SDS011;27262;-35.248;149.138;2023-02-13T10:25:47;5.50;;;2.13;;
41532;SDS011;27262;-35.248;149.138;2023-02-13T10:28:27;6.72;;;2.22;;
41532;SDS011;27262;-35.248;149.138;2023-02-13T10:31:02;9.32;;;2.30;;
41532;SDS011;27262;-35.248;149.138;2023-02-13T10:33:43;8.50;;;2.47;;
41532;SDS011;27262;-35.248;149.138;2023-02-13T10:44:49;7.22;;;2.47;;
41532;SDS011;27262;-35.248;149.138;2023-02-13T10:47:29;5.85;;;2.03;;
41532;SDS011;27262;-35.248;149.138;2023-02-13T10:58:36;6.90;;;2.30;;
41532;SDS011;27262;-35.248;149.138;2023-02-13T11:01:12;4.40;;;1.83;;
41532;SDS011;27262;-35.248;149.138;2023-02-13T11:04:11;5.07;;;1.70;;
41532;SDS011;27262;-35.248;149.138;2023-02-13T11:06:50;7.82;;;2.05;;
41532;SDS011;27262;-35.248;149.138;2023-02-13T11:09:29;7.00;;;1.83;;
41532;SDS011;27262;-35.248;149.138;2023-02-13T11:12:21;4.30;;;1.83;;
41532;SDS011;27262;-35.248;149.138;2023-02-13T11:15:00;10.40;;;2.10;;
41532;SDS011;27262;-35.248;149.138;2023-02-13T11:17:36;9.48;;;2.55;;
41532;SDS011;27262;-35.248;149.138;2023-02-13T11:20:28;5.47;;;1.95;;
41532;SDS011;27262;-35.248;149.138;2023-02-13T11:28:31;5.90;;;1.90;;
41532;SDS011;27262;-35.248;149.138;2023-02-13T11:31:26;7.68;;;2.13;;
41532;SDS011;27262;-35.248;149.138;2023-02-13T11:34:16;6.35;;;2.25;;
41532;SDS011;27262;-35.248;149.138;2023-02-13T11:36:50;6.20;;;2.20;;
41532;SDS011;27262;-35.248;149.138;2023-02-13T11:39:24;5.75;;;1.80;;
41532;SDS011;27262;-35.248;149.138;2023-02-13T11:41:55;6.95;;;1.95;;
41532;SDS011;27262;-35.248;149.138;2023-02-13T11:44:27;3.30;;;1.75;;
41532;SDS011;27262;-35.248;149.138;2023-02-13T11:47:01;6.93;;;2.10;;
41532;SDS011;27262;-35.248;149.138;2023-02-13T11:49:35;2.72;;;1.58;;
41532;SDS011;27262;-35.248;149.138;2023-02-13T11:52:10;3.83;;;1.90;;
41532;SDS011;27262;-35.248;149.138;2023-02-13T11:54:54;5.90;;;2.00;;
41532;SDS011;27262;-35.248;149.138;2023-02-13T11:57:32;4.55;;;1.90;;
41532;SDS011;27262;-35.248;149.138;2023-02-13T12:03:27;3.28;;;1.92;;
41532;SDS011;27262;-35.248;149.138;2023-02-13T12:06:02;4.25;;;1.95;;
41532;SDS011;27262;-35.248;149.138;2023-02-13T12:08:34;3.70;;;1.90;;
41532;SDS011;27262;-35.248;149.138;2023-02-13T12:11:34;4.00;;;1.88;;
41532;SDS011;27262;-35.248;149.138;2023-02-13T12:13:57;3.72;;;1.98;;
41532;SDS011;27262;-35.248;149.138;2023-02-13T12:16:41;3.00;;;1.60;;
41532;SDS011;27262;-35.248;149.138;2023-02-13T12:24:47;4.47;;;1.90;;
41532;SDS011;27262;-35.248;149.138;2023-02-13T12:27:28;3.00;;;1.58;;
41532;SDS011;27262;-35.248;149.138;2023-02-13T12:32:55;3.53;;;1.80;;
41532;SDS011;27262;-35.248;149.138;2023-02-13T12:35:35;2.90;;;1.65;;
41532;SDS011;27262;-35.248;149.138;2023-02-13T12:38:33;4.47;;;2.05;;
41532;SDS011;27262;-35.248;149.138;2023-02-13T12:57:16;6.63;;;1.95;;
41532;SDS011;27262;-35.248;149.138;2023-02-13T13:06:13;4.85;;;2.03;;
41532;SDS011;27262;-35.248;149.138;2023-02-13T13:11:51;4.35;;;2.17;;
41532;SDS011;27262;-35.248;149.138;2023-02-13T13:31:09;2.95;;;1.80;;
41532;SDS011;27262;-35.248;149.138;2023-02-13T13:33:45;3.80;;;1.83;;
41532;SDS011;27262;-35.248;149.138;2023-02-13T13:42:00;1.95;;;1.38;;
41532;SDS011;27262;-35.248;149.138;2023-02-13T13:49:57;2.88;;;1.48;;
41532;SDS011;27262;-35.248;149.138;2023-02-13T13:52:30;3.25;;;1.33;;
41532;SDS011;27262;-35.248;149.138;2023-02-13T13:55:03;4.20;;;2.10;;
41532;SDS011;27262;-35.248;149.138;2023-02-13T14:05:23;2.80;;;1.30;;
41532;SDS011;27262;-35.248;149.138;2023-02-13T14:07:59;2.33;;;1.48;;
41532;SDS011;27262;-35.248;149.138;2023-02-13T14:10:59;2.78;;;1.42;;
41532;SDS011;27262;-35.248;149.138;2023-02-13T14:13:33;3.30;;;1.73;;
41532;SDS011;27262;-35.248;149.138;2023-02-13T14:16:10;3.03;;;1.80;;
41532;SDS011;27262;-35.248;149.138;2023-02-13T14:19:00;2.67;;;1.45;;
41532;SDS011;27262;-35.248;149.138;2023-02-13T14:21:31;1.88;;;1.25;;
41532;SDS011;27262;-35.248;149.138;2023-02-13T14:24:02;2.95;;;1.48;;
41532;SDS011;27262;-35.248;149.138;2023-02-13T14:26:40;4.10;;;1.77;;
41532;SDS011;27262;-35.248;149.138;2023-02-13T14:32:03;4.45;;;1.58;;
41532;SDS011;27262;-35.248;149.138;2023-02-13T14:34:36;2.33;;;1.30;;
41532;SDS011;27262;-35.248;149.138;2023-02-13T14:42:39;1.80;;;1.30;;
41532;SDS011;27262;-35.248;149.138;2023-02-13T14:45:46;2.40;;;1.33;;
41532;SDS011;27262;-35.248;149.138;2023-02-13T14:48:31;2.33;;;1.35;;
41532;SDS011;27262;-35.248;149.138;2023-02-13T14:51:22;1.80;;;1.60;;
41532;SDS011;27262;-35.248;149.138;2023-02-13T14:54:24;3.42;;;1.60;;
41532;SDS011;27262;-35.248;149.138;2023-02-13T14:57:03;3.00;;;1.35;;
41532;SDS011;27262;-35.248;149.138;2023-02-13T14:59:38;2.67;;;1.30;;
41532;SDS011;27262;-35.248;149.138;2023-02-13T15:02:30;2.10;;;1.75;;
41532;SDS011;27262;-35.248;149.138;2023-02-13T15:07:51;2.03;;;1.50;;
41532;SDS011;27262;-35.248;149.138;2023-02-13T15:10:41;2.30;;;1.40;;
41532;SDS011;27262;-35.248;149.138;2023-02-13T15:15:51;2.72;;;1.38;;
41532;SDS011;27262;-35.248;149.138;2023-02-13T15:18:25;2.13;;;1.33;;
41532;SDS011;27262;-35.248;149.138;2023-02-13T15:20:58;2.83;;;1.33;;
41532;SDS011;27262;-35.248;149.138;2023-02-13T15:23:30;2.28;;;1.55;;
41532;SDS011;27262;-35.248;149.138;2023-02-13T15:26:05;2.13;;;1.35;;
41532;SDS011;27262;-35.248;149.138;2023-02-13T15:28:36;2.05;;;1.10;;
41532;SDS011;27262;-35.248;149.138;2023-02-13T15:31:52;1.88;;;1.45;;
41532;SDS011;27262;-35.248;149.138;2023-02-13T15:34:02;3.40;;;1.50;;
41532;SDS011;27262;-35.248;149.138;2023-02-13T15:36:46;1.92;;;1.00;;
41532;SDS011;27262;-35.248;149.138;2023-02-13T15:39:18;3.47;;;1.10;;
41532;SDS011;27262;-35.248;149.138;2023-02-13T15:41:53;1.52;;;1.10;;
41532;SDS011;27262;-35.248;149.138;2023-02-13T15:44:36;1.85;;;1.58;;
41532;SDS011;27262;-35.248;149.138;2023-02-13T15:47:17;1.50;;;1.00;;
41532;SDS011;27262;-35.248;149.138;2023-02-13T15:49:58;1.55;;;1.00;;
41532;SDS011;27262;-35.248;149.138;2023-02-13T15:55:00;1.52;;;0.93;;
41532;SDS011;27262;-35.248;149.138;2023-02-13T15:57:30;2.33;;;1.20;;
41532;SDS011;27262;-35.248;149.138;2023-02-13T16:00:01;1.42;;;1.20;;
41532;SDS011;27262;-35.248;149.138;2023-02-13T16:02:44;1.55;;;1.27;;
41532;SDS011;27262;-35.248;149.138;2023-02-13T16:05:15;2.00;;;1.00;;
41532;SDS011;27262;-35.248;149.138;2023-02-13T16:08:27;2.88;;;1.40;;
41532;SDS011;27262;-35.248;149.138;2023-02-13T16:16:46;2.22;;;1.30;;
41532;SDS011;27262;-35.248;149.138;2023-02-13T16:19:30;2.65;;;1.40;;
41532;SDS011;27262;-35.248;149.138;2023-02-13T16:22:20;1.40;;;1.20;;
41532;SDS011;27262;-35.248;149.138;2023-02-13T16:27:45;1.55;;;1.17;;
41532;SDS011;27262;-35.248;149.138;2023-02-13T16:30:40;1.48;;;1.13;;
41532;SDS011;27262;-35.248;149.138;2023-02-13T16:43:51;1.77;;;1.20;;
41532;SDS011;27262;-35.248;149.138;2023-02-13T16:49:04;1.70;;;1.20;;
41532;SDS011;27262;-35.248;149.138;2023-02-13T16:51:38;2.70;;;1.30;;
41532;SDS011;27262;-35.248;149.138;2023-02-13T17:07:28;1.45;;;1.05;;
41532;SDS011;27262;-35.248;149.138;2023-02-13T17:12:35;1.83;;;1.33;;
41532;SDS011;27262;-35.248;149.138;2023-02-13T17:15:09;1.80;;;1.20;;
41532;SDS011;27262;-35.248;149.138;2023-02-13T17:17:46;1.60;;;0.98;;
41532;SDS011;27262;-35.248;149.138;2023-02-13T17:20:22;1.33;;;0.82;;
41532;SDS011;27262;-35.248;149.138;2023-02-13T17:22:55;3.33;;;1.17;;
41532;SDS011;27262;-35.248;149.138;2023-02-13T17:25:36;1.40;;;0.80;;
41532;SDS011;27262;-35.248;149.138;2023-02-13T17:30:44;2.10;;;0.90;;
41532;SDS011;27262;-35.248;149.138;2023-02-13T17:33:19;1.75;;;1.08;;
41532;SDS011;27262;-35.248;149.138;2023-02-13T17:35:54;1.60;;;1.20;;
41532;SDS011;27262;-35.248;149.138;2023-02-13T17:38:28;1.42;;;1.02;;
41532;SDS011;27262;-35.248;149.138;2023-02-13T17:40:58;1.85;;;1.10;;
41532;SDS011;27262;-35.248;149.138;2023-02-13T17:43:29;1.15;;;1.00;;
41532;SDS011;27262;-35.248;149.138;2023-02-13T17:45:59;1.33;;;0.85;;
41532;SDS011;27262;-35.248;149.138;2023-02-13T17:48:29;1.02;;;0.93;;
41532;SDS011;27262;-35.248;149.138;2023-02-13T17:50:59;2.00;;;1.10;;
41532;SDS011;27262;-35.248;149.138;2023-02-13T17:53:32;1.10;;;0.80;;
41532;SDS011;27262;-35.248;149.138;2023-02-13T17:56:02;1.05;;;0.80;;
41532;SDS011;27262;-35.248;149.138;2023-02-13T17:58:33;1.40;;;1.00;;
41532;SDS011;27262;-35.248;149.138;2023-02-13T18:01:03;1.08;;;0.98;;
41532;SDS011;27262;-35.248;149.138;2023-02-13T18:03:33;1.20;;;0.95;;
41532;SDS011;27262;-35.248;149.138;2023-02-13T18:06:04;3.60;;;0.98;;
41532;SDS011;27262;-35.248;149.138;2023-02-13T18:08:35;1.63;;;0.98;;
41532;SDS011;27262;-35.248;149.138;2023-02-13T18:11:08;1.35;;;1.08;;
41532;SDS011;27262;-35.248;149.138;2023-02-13T18:13:43;1.30;;;0.90;;
41532;SDS011;27262;-35.248;149.138;2023-02-13T18:16:15;1.17;;;0.90;;